sensor_id;sensor_type;location;lat;lon;timestamp;pressure;altitude;pressure_sealevel;temperature
17142;BMP180;32805;53.556;9.944;2022-09-09T00:01:50;100565.00;;;14.40
17142;BMP180;32805;53.556;9.944;2022-09-09T00:04:26;100562.00;;;14.50
17142;BMP180;32805;53.556;9.944;2022-09-09T00:07:00;100567.00;;;14.50
17142;BMP180;32805;53.556;9.944;2022-09-09T00:09:31;100577.00;;;14.40
17142;BMP180;32805;53.556;9.944;2022-09-09T00:12:02;100564.00;;;14.40
17142;BMP180;32805;53.556;9.944;2022-09-09T00:14:41;100555.00;;;14.30
17142;BMP180;32805;53.556;9.944;2022-09-09T00:17:14;100566.00;;;14.40
17142;BMP180;32805;53.556;9.944;2022-09-09T00:19:47;100563.00;;;14.40
17142;BMP180;32805;53.556;9.944;2022-09-09T00:22:20;100563.00;;;14.40
17142;BMP180;32805;53.556;9.944;2022-09-09T00:24:51;100564.00;;;14.50
17142;BMP180;32805;53.556;9.944;2022-09-09T00:27:25;100570.00;;;14.50
17142;BMP180;32805;53.556;9.944;2022-09-09T00:30:01;100564.00;;;14.70
17142;BMP180;32805;53.556;9.944;2022-09-09T00:32:30;100570.00;;;14.70
17142;BMP180;32805;53.556;9.944;2022-09-09T00:35:03;100572.00;;;14.90
17142;BMP180;32805;53.556;9.944;2022-09-09T00:37:38;100565.00;;;14.90
17142;BMP180;32805;53.556;9.944;2022-09-09T00:40:18;100571.00;;;15.10
17142;BMP180;32805;53.556;9.944;2022-09-09T00:42:54;100561.00;;;15.10
17142;BMP180;32805;53.556;9.944;2022-09-09T00:45:52;100564.00;;;15.20
17142;BMP180;32805;53.556;9.944;2022-09-09T00:48:25;100554.00;;;15.20
17142;BMP180;32805;53.556;9.944;2022-09-09T00:50:57;100559.00;;;15.20
17142;BMP180;32805;53.556;9.944;2022-09-09T00:53:32;100554.00;;;15.10
17142;BMP180;32805;53.556;9.944;2022-09-09T00:56:11;100556.00;;;15.10
17142;BMP180;32805;53.556;9.944;2022-09-09T00:58:42;100555.00;;;15.10
17142;BMP180;32805;53.556;9.944;2022-09-09T01:01:12;100566.00;;;15.10
17142;BMP180;32805;53.556;9.944;2022-09-09T01:03:46;100560.00;;;15.20
17142;BMP180;32805;53.556;9.944;2022-09-09T01:06:18;100558.00;;;15.30
17142;BMP180;32805;53.556;9.944;2022-09-09T01:09:00;100564.00;;;15.30
17142;BMP180;32805;53.556;9.944;2022-09-09T01:11:37;100560.00;;;15.30
17142;BMP180;32805;53.556;9.944;2022-09-09T01:14:20;100559.00;;;15.30
17142;BMP180;32805;53.556;9.944;2022-09-09T01:16:54;100553.00;;;15.20
17142;BMP180;32805;53.556;9.944;2022-09-09T01:19:30;100554.00;;;15.20
17142;BMP180;32805;53.556;9.944;2022-09-09T01:22:06;100561.00;;;15.30
17142;BMP180;32805;53.556;9.944;2022-09-09T01:24:42;100562.00;;;15.20
17142;BMP180;32805;53.556;9.944;2022-09-09T01:27:27;100555.00;;;15.20
17142;BMP180;32805;53.556;9.944;2022-09-09T01:29:55;100556.00;;;15.30
17142;BMP180;32805;53.556;9.944;2022-09-09T01:32:39;100558.00;;;15.40
17142;BMP180;32805;53.556;9.944;2022-09-09T01:35:11;100555.00;;;15.50
17142;BMP180;32805;53.556;9.944;2022-09-09T01:37:40;100542.00;;;15.40
17142;BMP180;32805;53.556;9.944;2022-09-09T01:40:08;100554.00;;;15.50
17142;BMP180;32805;53.556;9.944;2022-09-09T01:42:38;100538.00;;;15.40
17142;BMP180;32805;53.556;9.944;2022-09-09T01:45:08;100543.00;;;15.40
17142;BMP180;32805;53.556;9.944;2022-09-09T01:47:36;100549.00;;;15.40
17142;BMP180;32805;53.556;9.944;2022-09-09T01:50:15;100548.00;;;15.30
17142;BMP180;32805;53.556;9.944;2022-09-09T01:52:46;100544.00;;;15.30
17142;BMP180;32805;53.556;9.944;2022-09-09T01:55:23;100543.00;;;15.20
17142;BMP180;32805;53.556;9.944;2022-09-09T01:58:02;100542.00;;;15.10
17142;BMP180;32805;53.556;9.944;2022-09-09T02:00:43;100546.00;;;15.20
17142;BMP180;32805;53.556;9.944;2022-09-09T02:03:21;100545.00;;;15.10
17142;BMP180;32805;53.556;9.944;2022-09-09T02:06:03;100550.00;;;15.00
17142;BMP180;32805;53.556;9.944;2022-09-09T02:08:38;100555.00;;;14.90
17142;BMP180;32805;53.556;9.944;2022-09-09T02:11:12;100547.00;;;14.90
17142;BMP180;32805;53.556;9.944;2022-09-09T02:14:04;100544.00;;;14.90
17142;BMP180;32805;53.556;9.944;2022-09-09T02:16:39;100556.00;;;14.80
17142;BMP180;32805;53.556;9.944;2022-09-09T02:19:11;100558.00;;;14.90
17142;BMP180;32805;53.556;9.944;2022-09-09T02:22:06;100544.00;;;14.90
17142;BMP180;32805;53.556;9.944;2022-09-09T02:24:37;100542.00;;;14.90
17142;BMP180;32805;53.556;9.944;2022-09-09T02:27:12;100544.00;;;14.90
17142;BMP180;32805;53.556;9.944;2022-09-09T02:29:43;100546.00;;;14.80
17142;BMP180;32805;53.556;9.944;2022-09-09T02:32:17;100549.00;;;14.90
17142;BMP180;32805;53.556;9.944;2022-09-09T02:34:49;100543.00;;;14.90
17142;BMP180;32805;53.556;9.944;2022-09-09T02:37:19;100546.00;;;14.90
17142;BMP180;32805;53.556;9.944;2022-09-09T02:39:51;100549.00;;;14.90
17142;BMP180;32805;53.556;9.944;2022-09-09T02:42:21;100526.00;;;14.80
17142;BMP180;32805;53.556;9.944;2022-09-09T02:44:53;100534.00;;;14.70
17142;BMP180;32805;53.556;9.944;2022-09-09T02:47:29;100528.00;;;14.60
17142;BMP180;32805;53.556;9.944;2022-09-09T02:50:10;100538.00;;;14.70
17142;BMP180;32805;53.556;9.944;2022-09-09T02:52:47;100538.00;;;14.80
17142;BMP180;32805;53.556;9.944;2022-09-09T02:55:21;100542.00;;;14.70
17142;BMP180;32805;53.556;9.944;2022-09-09T02:57:55;100547.00;;;14.80
17142;BMP180;32805;53.556;9.944;2022-09-09T03:00:27;100546.00;;;14.80
17142;BMP180;32805;53.556;9.944;2022-09-09T03:02:59;100550.00;;;14.80
17142;BMP180;32805;53.556;9.944;2022-09-09T03:05:27;100542.00;;;14.60
17142;BMP180;32805;53.556;9.944;2022-09-09T03:07:55;100541.00;;;14.60
17142;BMP180;32805;53.556;9.944;2022-09-09T03:10:23;100544.00;;;14.60
17142;BMP180;32805;53.556;9.944;2022-09-09T03:12:51;100539.00;;;14.70
17142;BMP180;32805;53.556;9.944;2022-09-09T03:15:19;100549.00;;;14.60
17142;BMP180;32805;53.556;9.944;2022-09-09T03:17:48;100553.00;;;14.60
17142;BMP180;32805;53.556;9.944;2022-09-09T03:20:16;100549.00;;;14.60
17142;BMP180;32805;53.556;9.944;2022-09-09T03:22:44;100558.00;;;14.60
17142;BMP180;32805;53.556;9.944;2022-09-09T03:25:12;100551.00;;;14.40
17142;BMP180;32805;53.556;9.944;2022-09-09T03:27:40;100545.00;;;14.40
17142;BMP180;32805;53.556;9.944;2022-09-09T03:30:10;100541.00;;;14.40
17142;BMP180;32805;53.556;9.944;2022-09-09T03:32:39;100544.00;;;14.40
17142;BMP180;32805;53.556;9.944;2022-09-09T03:35:08;100535.00;;;14.30
17142;BMP180;32805;53.556;9.944;2022-09-09T03:37:36;100536.00;;;14.30
17142;BMP180;32805;53.556;9.944;2022-09-09T03:40:06;100540.00;;;14.30
17142;BMP180;32805;53.556;9.944;2022-09-09T03:42:36;100534.00;;;14.10
17142;BMP180;32805;53.556;9.944;2022-09-09T03:45:05;100546.00;;;14.20
17142;BMP180;32805;53.556;9.944;2022-09-09T03:47:36;100552.00;;;14.10
17142;BMP180;32805;53.556;9.944;2022-09-09T03:50:08;100553.00;;;14.10
17142;BMP180;32805;53.556;9.944;2022-09-09T03:52:42;100546.00;;;14.10
17142;BMP180;32805;53.556;9.944;2022-09-09T03:55:16;100561.00;;;14.30
17142;BMP180;32805;53.556;9.944;2022-09-09T03:57:45;100556.00;;;14.40
17142;BMP180;32805;53.556;9.944;2022-09-09T04:00:13;100563.00;;;14.50
17142;BMP180;32805;53.556;9.944;2022-09-09T04:02:48;100556.00;;;14.50
17142;BMP180;32805;53.556;9.944;2022-09-09T04:05:18;100566.00;;;14.50
17142;BMP180;32805;53.556;9.944;2022-09-09T04:07:47;100559.00;;;14.50
17142;BMP180;32805;53.556;9.944;2022-09-09T04:10:15;100561.00;;;14.60
17142;BMP180;32805;53.556;9.944;2022-09-09T04:12:43;100559.00;;;14.50
17142;BMP180;32805;53.556;9.944;2022-09-09T04:15:15;100565.00;;;14.50
17142;BMP180;32805;53.556;9.944;2022-09-09T04:17:45;100570.00;;;14.50
17142;BMP180;32805;53.556;9.944;2022-09-09T04:20:13;100564.00;;;14.50
17142;BMP180;32805;53.556;9.944;2022-09-09T04:22:42;100569.00;;;14.50
17142;BMP180;32805;53.556;9.944;2022-09-09T04:25:10;100559.00;;;14.50
17142;BMP180;32805;53.556;9.944;2022-09-09T04:27:37;100572.00;;;14.40
17142;BMP180;32805;53.556;9.944;2022-09-09T04:30:07;100579.00;;;14.40
17142;BMP180;32805;53.556;9.944;2022-09-09T04:32:35;100573.00;;;14.40
17142;BMP180;32805;53.556;9.944;2022-09-09T04:35:03;100571.00;;;14.40
17142;BMP180;32805;53.556;9.944;2022-09-09T04:37:31;100568.00;;;14.50
17142;BMP180;32805;53.556;9.944;2022-09-09T04:40:01;100565.00;;;14.50
17142;BMP180;32805;53.556;9.944;2022-09-09T04:42:30;100559.00;;;14.60
17142;BMP180;32805;53.556;9.944;2022-09-09T04:44:57;100568.00;;;14.70
17142;BMP180;32805;53.556;9.944;2022-09-09T04:47:25;100580.00;;;14.80
17142;BMP180;32805;53.556;9.944;2022-09-09T04:49:53;100576.00;;;14.80
17142;BMP180;32805;53.556;9.944;2022-09-09T04:52:21;100580.00;;;14.80
17142;BMP180;32805;53.556;9.944;2022-09-09T04:54:48;100581.00;;;14.90
17142;BMP180;32805;53.556;9.944;2022-09-09T04:57:18;100572.00;;;14.90
17142;BMP180;32805;53.556;9.944;2022-09-09T04:59:46;100586.00;;;14.90
17142;BMP180;32805;53.556;9.944;2022-09-09T05:02:14;100587.00;;;14.90
17142;BMP180;32805;53.556;9.944;2022-09-09T05:04:42;100581.00;;;14.80
17142;BMP180;32805;53.556;9.944;2022-09-09T05:07:10;100595.00;;;14.80
17142;BMP180;32805;53.556;9.944;2022-09-09T05:09:39;100587.00;;;14.80
17142;BMP180;32805;53.556;9.944;2022-09-09T05:12:06;100587.00;;;14.70
17142;BMP180;32805;53.556;9.944;2022-09-09T05:14:37;100586.00;;;14.80
17142;BMP180;32805;53.556;9.944;2022-09-09T05:17:05;100586.00;;;14.80
17142;BMP180;32805;53.556;9.944;2022-09-09T05:19:36;100587.00;;;14.60
17142;BMP180;32805;53.556;9.944;2022-09-09T05:22:04;100587.00;;;14.60
17142;BMP180;32805;53.556;9.944;2022-09-09T05:24:39;100576.00;;;14.50
17142;BMP180;32805;53.556;9.944;2022-09-09T05:27:07;100587.00;;;14.60
17142;BMP180;32805;53.556;9.944;2022-09-09T05:29:40;100597.00;;;14.70
17142;BMP180;32805;53.556;9.944;2022-09-09T05:32:09;100596.00;;;14.80
17142;BMP180;32805;53.556;9.944;2022-09-09T05:34:42;100592.00;;;14.80
17142;BMP180;32805;53.556;9.944;2022-09-09T05:37:11;100592.00;;;14.70
17142;BMP180;32805;53.556;9.944;2022-09-09T05:39:38;100599.00;;;14.70
17142;BMP180;32805;53.556;9.944;2022-09-09T05:42:06;100600.00;;;14.90
17142;BMP180;32805;53.556;9.944;2022-09-09T05:44:34;100605.00;;;14.80
17142;BMP180;32805;53.556;9.944;2022-09-09T05:47:03;100608.00;;;14.80
17142;BMP180;32805;53.556;9.944;2022-09-09T05:49:31;100625.00;;;14.90
17142;BMP180;32805;53.556;9.944;2022-09-09T05:51:59;100609.00;;;15.00
17142;BMP180;32805;53.556;9.944;2022-09-09T05:54:26;100610.00;;;14.90
17142;BMP180;32805;53.556;9.944;2022-09-09T05:56:54;100614.00;;;15.10
17142;BMP180;32805;53.556;9.944;2022-09-09T05:59:22;100617.00;;;15.00
17142;BMP180;32805;53.556;9.944;2022-09-09T06:01:53;100621.00;;;15.00
17142;BMP180;32805;53.556;9.944;2022-09-09T06:04:29;100621.00;;;15.20
17142;BMP180;32805;53.556;9.944;2022-09-09T06:06:59;100636.00;;;15.20
17142;BMP180;32805;53.556;9.944;2022-09-09T06:09:28;100634.00;;;15.30
17142;BMP180;32805;53.556;9.944;2022-09-09T06:11:56;100629.00;;;15.30
17142;BMP180;32805;53.556;9.944;2022-09-09T06:14:25;100634.00;;;15.30
17142;BMP180;32805;53.556;9.944;2022-09-09T06:16:56;100638.00;;;15.30
17142;BMP180;32805;53.556;9.944;2022-09-09T06:19:29;100646.00;;;15.40
17142;BMP180;32805;53.556;9.944;2022-09-09T06:21:58;100647.00;;;15.50
17142;BMP180;32805;53.556;9.944;2022-09-09T06:24:27;100652.00;;;15.40
17142;BMP180;32805;53.556;9.944;2022-09-09T06:26:57;100640.00;;;15.40
17142;BMP180;32805;53.556;9.944;2022-09-09T06:29:28;100639.00;;;15.40
17142;BMP180;32805;53.556;9.944;2022-09-09T06:31:55;100637.00;;;15.30
17142;BMP180;32805;53.556;9.944;2022-09-09T06:34:26;100642.00;;;15.20
17142;BMP180;32805;53.556;9.944;2022-09-09T06:36:57;100646.00;;;15.30
17142;BMP180;32805;53.556;9.944;2022-09-09T06:39:30;100638.00;;;15.40
17142;BMP180;32805;53.556;9.944;2022-09-09T06:41:58;100645.00;;;15.40
17142;BMP180;32805;53.556;9.944;2022-09-09T06:44:46;100635.00;;;15.50
17142;BMP180;32805;53.556;9.944;2022-09-09T06:47:34;100642.00;;;15.60
17142;BMP180;32805;53.556;9.944;2022-09-09T06:50:03;100637.00;;;15.60
17142;BMP180;32805;53.556;9.944;2022-09-09T06:52:36;100637.00;;;15.60
17142;BMP180;32805;53.556;9.944;2022-09-09T06:55:05;100625.00;;;15.60
17142;BMP180;32805;53.556;9.944;2022-09-09T06:57:33;100633.00;;;15.60
17142;BMP180;32805;53.556;9.944;2022-09-09T07:00:08;100636.00;;;15.60
17142;BMP180;32805;53.556;9.944;2022-09-09T07:02:37;100642.00;;;15.70
17142;BMP180;32805;53.556;9.944;2022-09-09T07:05:08;100643.00;;;15.90
17142;BMP180;32805;53.556;9.944;2022-09-09T07:07:38;100638.00;;;16.10
17142;BMP180;32805;53.556;9.944;2022-09-09T07:10:08;100642.00;;;16.20
17142;BMP180;32805;53.556;9.944;2022-09-09T07:12:36;100640.00;;;16.30
17142;BMP180;32805;53.556;9.944;2022-09-09T07:15:11;100647.00;;;16.40
17142;BMP180;32805;53.556;9.944;2022-09-09T07:17:42;100646.00;;;16.50
17142;BMP180;32805;53.556;9.944;2022-09-09T07:20:10;100645.00;;;16.60
17142;BMP180;32805;53.556;9.944;2022-09-09T07:22:41;100649.00;;;16.60
17142;BMP180;32805;53.556;9.944;2022-09-09T07:25:09;100647.00;;;16.70
17142;BMP180;32805;53.556;9.944;2022-09-09T07:27:37;100653.00;;;16.60
17142;BMP180;32805;53.556;9.944;2022-09-09T07:30:08;100640.00;;;16.60
17142;BMP180;32805;53.556;9.944;2022-09-09T07:32:35;100643.00;;;16.70
17142;BMP180;32805;53.556;9.944;2022-09-09T07:35:03;100642.00;;;16.70
17142;BMP180;32805;53.556;9.944;2022-09-09T07:37:31;100647.00;;;16.70
17142;BMP180;32805;53.556;9.944;2022-09-09T07:40:01;100646.00;;;16.90
17142;BMP180;32805;53.556;9.944;2022-09-09T07:42:30;100647.00;;;16.90
17142;BMP180;32805;53.556;9.944;2022-09-09T07:44:57;100649.00;;;16.90
17142;BMP180;32805;53.556;9.944;2022-09-09T07:47:26;100654.00;;;17.00
17142;BMP180;32805;53.556;9.944;2022-09-09T07:49:54;100655.00;;;16.90
17142;BMP180;32805;53.556;9.944;2022-09-09T07:52:26;100653.00;;;16.90
17142;BMP180;32805;53.556;9.944;2022-09-09T07:54:58;100659.00;;;17.00
17142;BMP180;32805;53.556;9.944;2022-09-09T07:57:28;100660.00;;;17.10
17142;BMP180;32805;53.556;9.944;2022-09-09T07:59:57;100660.00;;;17.20
17142;BMP180;32805;53.556;9.944;2022-09-09T08:02:25;100672.00;;;17.20
17142;BMP180;32805;53.556;9.944;2022-09-09T08:04:55;100674.00;;;17.10
17142;BMP180;32805;53.556;9.944;2022-09-09T08:07:23;100673.00;;;17.20
17142;BMP180;32805;53.556;9.944;2022-09-09T08:09:53;100665.00;;;17.30
17142;BMP180;32805;53.556;9.944;2022-09-09T08:12:26;100673.00;;;17.30
17142;BMP180;32805;53.556;9.944;2022-09-09T08:14:57;100671.00;;;17.20
17142;BMP180;32805;53.556;9.944;2022-09-09T08:17:28;100670.00;;;17.30
17142;BMP180;32805;53.556;9.944;2022-09-09T08:19:59;100674.00;;;17.40
17142;BMP180;32805;53.556;9.944;2022-09-09T08:22:31;100678.00;;;17.40
17142;BMP180;32805;53.556;9.944;2022-09-09T08:25:00;100680.00;;;17.50
17142;BMP180;32805;53.556;9.944;2022-09-09T08:27:30;100678.00;;;17.50
17142;BMP180;32805;53.556;9.944;2022-09-09T08:29:59;100682.00;;;17.60
17142;BMP180;32805;53.556;9.944;2022-09-09T08:32:28;100689.00;;;17.70
17142;BMP180;32805;53.556;9.944;2022-09-09T08:34:57;100685.00;;;17.80
17142;BMP180;32805;53.556;9.944;2022-09-09T08:37:28;100686.00;;;17.90
17142;BMP180;32805;53.556;9.944;2022-09-09T08:39:56;100687.00;;;17.90
17142;BMP180;32805;53.556;9.944;2022-09-09T08:42:30;100680.00;;;17.90
17142;BMP180;32805;53.556;9.944;2022-09-09T08:45:28;100686.00;;;17.90
17142;BMP180;32805;53.556;9.944;2022-09-09T08:48:09;100684.00;;;17.90
17142;BMP180;32805;53.556;9.944;2022-09-09T08:50:42;100692.00;;;18.00
17142;BMP180;32805;53.556;9.944;2022-09-09T08:53:18;100696.00;;;18.00
17142;BMP180;32805;53.556;9.944;2022-09-09T08:55:51;100691.00;;;18.10
17142;BMP180;32805;53.556;9.944;2022-09-09T08:58:26;100698.00;;;18.10
17142;BMP180;32805;53.556;9.944;2022-09-09T09:01:11;100689.00;;;18.20
17142;BMP180;32805;53.556;9.944;2022-09-09T09:03:53;100694.00;;;18.30
17142;BMP180;32805;53.556;9.944;2022-09-09T09:06:31;100699.00;;;18.20
17142;BMP180;32805;53.556;9.944;2022-09-09T09:09:11;100702.00;;;18.20
17142;BMP180;32805;53.556;9.944;2022-09-09T09:11:45;100697.00;;;18.20
17142;BMP180;32805;53.556;9.944;2022-09-09T09:14:18;100702.00;;;18.40
17142;BMP180;32805;53.556;9.944;2022-09-09T09:16:52;100689.00;;;18.50
17142;BMP180;32805;53.556;9.944;2022-09-09T09:19:21;100695.00;;;18.60
17142;BMP180;32805;53.556;9.944;2022-09-09T09:21:58;100697.00;;;18.70
17142;BMP180;32805;53.556;9.944;2022-09-09T09:24:42;100689.00;;;18.90
17142;BMP180;32805;53.556;9.944;2022-09-09T09:27:15;100693.00;;;18.80
17142;BMP180;32805;53.556;9.944;2022-09-09T09:29:50;100697.00;;;19.00
17142;BMP180;32805;53.556;9.944;2022-09-09T09:32:44;100700.00;;;19.00
17142;BMP180;32805;53.556;9.944;2022-09-09T09:35:16;100701.00;;;19.10
17142;BMP180;32805;53.556;9.944;2022-09-09T09:37:43;100702.00;;;19.10
17142;BMP180;32805;53.556;9.944;2022-09-09T09:40:33;100705.00;;;19.10
17142;BMP180;32805;53.556;9.944;2022-09-09T09:43:02;100711.00;;;19.10
17142;BMP180;32805;53.556;9.944;2022-09-09T09:45:41;100704.00;;;19.10
17142;BMP180;32805;53.556;9.944;2022-09-09T09:48:32;100701.00;;;19.10
17142;BMP180;32805;53.556;9.944;2022-09-09T09:51:09;100700.00;;;18.90
17142;BMP180;32805;53.556;9.944;2022-09-09T09:53:39;100696.00;;;18.90
17142;BMP180;32805;53.556;9.944;2022-09-09T09:56:11;100698.00;;;18.80
17142;BMP180;32805;53.556;9.944;2022-09-09T09:58:49;100701.00;;;19.00
17142;BMP180;32805;53.556;9.944;2022-09-09T10:01:22;100699.00;;;19.00
17142;BMP180;32805;53.556;9.944;2022-09-09T10:03:54;100695.00;;;19.10
17142;BMP180;32805;53.556;9.944;2022-09-09T10:06:32;100697.00;;;19.30
17142;BMP180;32805;53.556;9.944;2022-09-09T10:09:02;100697.00;;;19.40
17142;BMP180;32805;53.556;9.944;2022-09-09T10:11:41;100684.00;;;19.50
17142;BMP180;32805;53.556;9.944;2022-09-09T10:14:17;100700.00;;;19.40
17142;BMP180;32805;53.556;9.944;2022-09-09T10:16:57;100707.00;;;19.10
17142;BMP180;32805;53.556;9.944;2022-09-09T10:19:30;100696.00;;;19.00
17142;BMP180;32805;53.556;9.944;2022-09-09T10:22:16;100669.00;;;19.00
17142;BMP180;32805;53.556;9.944;2022-09-09T10:24:55;100685.00;;;19.00
17142;BMP180;32805;53.556;9.944;2022-09-09T10:27:32;100700.00;;;19.00
17142;BMP180;32805;53.556;9.944;2022-09-09T10:30:09;100695.00;;;19.00
17142;BMP180;32805;53.556;9.944;2022-09-09T10:32:46;100694.00;;;19.10
17142;BMP180;32805;53.556;9.944;2022-09-09T10:35:29;100690.00;;;19.10
17142;BMP180;32805;53.556;9.944;2022-09-09T10:38:10;100699.00;;;19.20
17142;BMP180;32805;53.556;9.944;2022-09-09T10:40:48;100696.00;;;19.30
17142;BMP180;32805;53.556;9.944;2022-09-09T10:43:31;100683.00;;;19.30
17142;BMP180;32805;53.556;9.944;2022-09-09T10:46:04;100682.00;;;19.30
17142;BMP180;32805;53.556;9.944;2022-09-09T10:48:47;100697.00;;;19.20
17142;BMP180;32805;53.556;9.944;2022-09-09T10:51:23;100685.00;;;19.20
17142;BMP180;32805;53.556;9.944;2022-09-09T10:54:09;100694.00;;;19.50
17142;BMP180;32805;53.556;9.944;2022-09-09T10:56:42;100687.00;;;19.60
17142;BMP180;32805;53.556;9.944;2022-09-09T10:59:15;100687.00;;;19.70
17142;BMP180;32805;53.556;9.944;2022-09-09T11:01:47;100685.00;;;19.70
17142;BMP180;32805;53.556;9.944;2022-09-09T11:04:17;100685.00;;;19.60
17142;BMP180;32805;53.556;9.944;2022-09-09T11:06:51;100676.00;;;19.80
17142;BMP180;32805;53.556;9.944;2022-09-09T11:09:23;100680.00;;;19.80
17142;BMP180;32805;53.556;9.944;2022-09-09T11:11:53;100682.00;;;19.80
17142;BMP180;32805;53.556;9.944;2022-09-09T11:14:27;100676.00;;;20.00
17142;BMP180;32805;53.556;9.944;2022-09-09T11:17:05;100681.00;;;20.10
17142;BMP180;32805;53.556;9.944;2022-09-09T11:19:37;100677.00;;;20.10
17142;BMP180;32805;53.556;9.944;2022-09-09T11:22:15;100681.00;;;20.20
17142;BMP180;32805;53.556;9.944;2022-09-09T11:24:48;100675.00;;;20.50
17142;BMP180;32805;53.556;9.944;2022-09-09T11:27:21;100678.00;;;20.90
17142;BMP180;32805;53.556;9.944;2022-09-09T11:30:14;100683.00;;;21.20
17142;BMP180;32805;53.556;9.944;2022-09-09T11:33:41;100680.00;;;21.30
17142;BMP180;32805;53.556;9.944;2022-09-09T11:36:35;100681.00;;;21.00
17142;BMP180;32805;53.556;9.944;2022-09-09T11:39:24;100679.00;;;21.00
17142;BMP180;32805;53.556;9.944;2022-09-09T11:42:05;100681.00;;;21.00
17142;BMP180;32805;53.556;9.944;2022-09-09T11:44:33;100685.00;;;20.90
17142;BMP180;32805;53.556;9.944;2022-09-09T11:47:16;100693.00;;;20.80
17142;BMP180;32805;53.556;9.944;2022-09-09T11:49:46;100688.00;;;20.70
17142;BMP180;32805;53.556;9.944;2022-09-09T11:52:21;100695.00;;;20.60
17142;BMP180;32805;53.556;9.944;2022-09-09T11:54:51;100695.00;;;20.60
17142;BMP180;32805;53.556;9.944;2022-09-09T11:57:25;100685.00;;;20.50
17142;BMP180;32805;53.556;9.944;2022-09-09T11:59:54;100689.00;;;20.30
17142;BMP180;32805;53.556;9.944;2022-09-09T12:02:24;100694.00;;;20.30
17142;BMP180;32805;53.556;9.944;2022-09-09T12:04:59;100684.00;;;20.40
17142;BMP180;32805;53.556;9.944;2022-09-09T12:07:33;100691.00;;;20.40
17142;BMP180;32805;53.556;9.944;2022-09-09T12:10:05;100686.00;;;20.30
17142;BMP180;32805;53.556;9.944;2022-09-09T12:12:35;100687.00;;;20.30
17142;BMP180;32805;53.556;9.944;2022-09-09T12:15:25;100685.00;;;20.20
17142;BMP180;32805;53.556;9.944;2022-09-09T12:17:56;100684.00;;;20.20
17142;BMP180;32805;53.556;9.944;2022-09-09T12:20:34;100682.00;;;20.10
17142;BMP180;32805;53.556;9.944;2022-09-09T12:23:25;100679.00;;;20.10
17142;BMP180;32805;53.556;9.944;2022-09-09T12:26:05;100681.00;;;20.30
17142;BMP180;32805;53.556;9.944;2022-09-09T12:28:43;100680.00;;;20.50
17142;BMP180;32805;53.556;9.944;2022-09-09T12:31:17;100678.00;;;20.70
17142;BMP180;32805;53.556;9.944;2022-09-09T12:33:48;100686.00;;;20.80
17142;BMP180;32805;53.556;9.944;2022-09-09T12:36:21;100688.00;;;20.90
17142;BMP180;32805;53.556;9.944;2022-09-09T12:38:53;100675.00;;;20.90
17142;BMP180;32805;53.556;9.944;2022-09-09T12:41:24;100677.00;;;20.80
17142;BMP180;32805;53.556;9.944;2022-09-09T12:44:03;100667.00;;;20.80
17142;BMP180;32805;53.556;9.944;2022-09-09T12:46:37;100669.00;;;20.60
17142;BMP180;32805;53.556;9.944;2022-09-09T12:49:26;100679.00;;;20.50
17142;BMP180;32805;53.556;9.944;2022-09-09T12:52:08;100676.00;;;20.40
17142;BMP180;32805;53.556;9.944;2022-09-09T12:54:47;100678.00;;;20.30
17142;BMP180;32805;53.556;9.944;2022-09-09T12:57:19;100683.00;;;20.20
17142;BMP180;32805;53.556;9.944;2022-09-09T12:59:49;100679.00;;;20.00
17142;BMP180;32805;53.556;9.944;2022-09-09T13:02:20;100687.00;;;19.80
17142;BMP180;32805;53.556;9.944;2022-09-09T13:04:48;100696.00;;;19.70
17142;BMP180;32805;53.556;9.944;2022-09-09T13:07:20;100697.00;;;19.60
17142;BMP180;32805;53.556;9.944;2022-09-09T13:09:49;100687.00;;;19.50
17142;BMP180;32805;53.556;9.944;2022-09-09T13:12:21;100684.00;;;19.50
17142;BMP180;32805;53.556;9.944;2022-09-09T13:14:51;100692.00;;;19.50
17142;BMP180;32805;53.556;9.944;2022-09-09T13:17:21;100689.00;;;19.30
17142;BMP180;32805;53.556;9.944;2022-09-09T13:19:51;100696.00;;;19.20
17142;BMP180;32805;53.556;9.944;2022-09-09T13:22:22;100717.00;;;18.90
17142;BMP180;32805;53.556;9.944;2022-09-09T13:25:05;100732.00;;;18.20
17142;BMP180;32805;53.556;9.944;2022-09-09T13:27:36;100740.00;;;17.70
17142;BMP180;32805;53.556;9.944;2022-09-09T13:30:20;100749.00;;;17.30
17142;BMP180;32805;53.556;9.944;2022-09-09T13:33:04;100748.00;;;17.00
17142;BMP180;32805;53.556;9.944;2022-09-09T13:35:32;100749.00;;;16.80
17142;BMP180;32805;53.556;9.944;2022-09-09T13:38:07;100755.00;;;16.70
17142;BMP180;32805;53.556;9.944;2022-09-09T13:40:35;100752.00;;;16.60
17142;BMP180;32805;53.556;9.944;2022-09-09T13:43:13;100754.00;;;16.70
17142;BMP180;32805;53.556;9.944;2022-09-09T13:45:52;100766.00;;;16.70
17142;BMP180;32805;53.556;9.944;2022-09-09T13:48:20;100764.00;;;16.70
17142;BMP180;32805;53.556;9.944;2022-09-09T13:50:57;100758.00;;;16.60
17142;BMP180;32805;53.556;9.944;2022-09-09T13:53:27;100751.00;;;16.70
17142;BMP180;32805;53.556;9.944;2022-09-09T13:56:12;100767.00;;;16.60
17142;BMP180;32805;53.556;9.944;2022-09-09T13:58:54;100754.00;;;16.70
17142;BMP180;32805;53.556;9.944;2022-09-09T14:01:24;100748.00;;;16.70
17142;BMP180;32805;53.556;9.944;2022-09-09T14:03:55;100747.00;;;16.80
17142;BMP180;32805;53.556;9.944;2022-09-09T14:06:22;100741.00;;;16.80
17142;BMP180;32805;53.556;9.944;2022-09-09T14:08:51;100744.00;;;16.90
17142;BMP180;32805;53.556;9.944;2022-09-09T14:11:18;100743.00;;;16.90
17142;BMP180;32805;53.556;9.944;2022-09-09T14:13:47;100736.00;;;16.80
17142;BMP180;32805;53.556;9.944;2022-09-09T14:16:17;100737.00;;;16.80
17142;BMP180;32805;53.556;9.944;2022-09-09T14:18:45;100731.00;;;16.80
17142;BMP180;32805;53.556;9.944;2022-09-09T14:21:13;100735.00;;;16.80
17142;BMP180;32805;53.556;9.944;2022-09-09T14:23:42;100731.00;;;16.80
17142;BMP180;32805;53.556;9.944;2022-09-09T14:26:09;100728.00;;;16.90
17142;BMP180;32805;53.556;9.944;2022-09-09T14:28:37;100738.00;;;16.90
17142;BMP180;32805;53.556;9.944;2022-09-09T14:31:24;100736.00;;;16.80